createdAt,value
2023-03-15T00:01:34.550Z,2.33
2023-03-15T00:04:01.143Z,1.03
2023-03-15T00:06:27.613Z,1.17
2023-03-15T00:08:54.242Z,1.67
2023-03-15T00:11:20.814Z,5.47
2023-03-15T00:13:47.297Z,1.03
2023-03-15T00:16:18.017Z,1.80
2023-03-15T00:18:46.947Z,2.37
2023-03-15T00:21:14.076Z,4.60
2023-03-15T00:23:40.508Z,1.33
2023-03-15T00:26:06.971Z,2.40
2023-03-15T00:28:33.382Z,3.17
2023-03-15T00:31:17.258Z,1.90
2023-03-15T00:33:45.254Z,2.93
2023-03-15T00:36:12.022Z,3.77
2023-03-15T00:38:40.322Z,2.43
2023-03-15T00:41:12.982Z,1.83
2023-03-15T00:43:40.703Z,3.03
2023-03-15T00:46:08.449Z,5.40
2023-03-15T00:48:36.113Z,1.60
2023-03-15T00:51:13.894Z,3.60
2023-03-15T00:53:42.538Z,3.07
2023-03-15T00:56:18.348Z,2.57
2023-03-15T00:58:45.265Z,5.17
2023-03-15T01:01:17.557Z,1.43
2023-03-15T01:03:44.765Z,2.57
2023-03-15T01:06:14.453Z,3.13
2023-03-15T01:08:41.393Z,4.00
2023-03-15T01:11:21.148Z,2.63
2023-03-15T01:13:47.749Z,2.83
2023-03-15T01:16:15.093Z,2.73
2023-03-15T01:18:43.224Z,2.17
2023-03-15T01:21:11.921Z,1.77
2023-03-15T01:23:38.722Z,1.63
2023-03-15T01:26:07.299Z,3.47
2023-03-15T01:28:34.270Z,5.17
2023-03-15T01:31:00.794Z,5.40
2023-03-15T01:33:28.092Z,5.93
2023-03-15T01:36:00.166Z,3.37
2023-03-15T01:38:26.763Z,2.90
2023-03-15T01:40:53.390Z,1.97
2023-03-15T01:43:22.381Z,2.93
2023-03-15T01:45:56.725Z,2.87
2023-03-15T01:48:27.802Z,4.77
2023-03-15T01:50:55.205Z,1.20
2023-03-15T01:53:25.210Z,3.07
2023-03-15T01:55:53.500Z,3.57
2023-03-15T01:58:27.417Z,2.60
2023-03-15T02:00:55.052Z,3.27
2023-03-15T02:03:29.870Z,1.97
2023-03-15T02:06:01.217Z,1.83
2023-03-15T02:09:02.581Z,2.53
2023-03-15T02:11:34.781Z,2.30
2023-03-15T02:14:05.254Z,2.73
2023-03-15T02:16:33.646Z,5.10
2023-03-15T02:19:11.710Z,2.47
2023-03-15T02:22:01.752Z,3.93
2023-03-15T02:25:00.383Z,3.03
2023-03-15T02:27:30.593Z,3.23
2023-03-15T02:29:57.583Z,8.50
2023-03-15T02:32:24.067Z,5.70
2023-03-15T02:34:50.539Z,2.70
2023-03-15T02:37:16.982Z,4.97
2023-03-15T02:39:43.391Z,4.80
2023-03-15T02:42:12.409Z,6.23
2023-03-15T02:44:41.484Z,2.80
2023-03-15T02:47:13.301Z,3.43
2023-03-15T02:49:43.733Z,4.07
2023-03-15T02:52:12.085Z,7.07
2023-03-15T02:54:39.270Z,5.10
2023-03-15T02:57:07.800Z,6.20
2023-03-15T02:59:34.233Z,7.17
2023-03-15T03:02:01.184Z,3.77
2023-03-15T03:04:27.665Z,4.97
2023-03-15T03:06:54.163Z,5.83
2023-03-15T03:09:24.587Z,6.93
2023-03-15T03:11:51.664Z,4.50
2023-03-15T03:14:18.614Z,4.20
2023-03-15T03:16:45.228Z,6.37
2023-03-15T03:19:12.545Z,5.30
2023-03-15T03:21:43.146Z,5.97
2023-03-15T03:24:12.292Z,4.63
2023-03-15T03:26:38.942Z,7.10
2023-03-15T03:29:08.512Z,6.60
2023-03-15T03:31:35.154Z,6.80
2023-03-15T03:34:02.943Z,6.40
2023-03-15T03:36:30.231Z,5.63
2023-03-15T03:38:57.185Z,7.53
2023-03-15T03:41:24.401Z,6.00
2023-03-15T03:43:50.877Z,2.60
2023-03-15T03:46:18.168Z,6.63
2023-03-15T03:48:49.730Z,7.47
2023-03-15T03:51:16.182Z,6.27
2023-03-15T03:53:42.675Z,4.77
2023-03-15T03:56:09.489Z,7.97
2023-03-15T03:58:36.866Z,4.90
2023-03-15T04:01:11.687Z,9.03
2023-03-15T04:03:39.690Z,7.83
2023-03-15T04:06:10.821Z,7.20
2023-03-15T04:08:41.594Z,7.03
2023-03-15T04:11:11.212Z,7.87
2023-03-15T04:13:40.334Z,9.27
2023-03-15T04:16:07.449Z,8.77
2023-03-15T04:18:47.395Z,6.53
2023-03-15T04:21:13.922Z,8.93
2023-03-15T04:23:44.013Z,9.67
2023-03-15T04:26:18.652Z,15.57
2023-03-15T04:28:58.545Z,8.43
2023-03-15T04:31:38.173Z,9.27
2023-03-15T04:34:31.632Z,12.03
2023-03-15T04:37:07.443Z,9.97
2023-03-15T04:39:59.067Z,6.87
2023-03-15T04:42:47.008Z,8.87
2023-03-15T04:45:26.954Z,12.27
2023-03-15T04:48:12.043Z,11.07
2023-03-15T04:50:56.047Z,12.50
2023-03-15T04:53:42.762Z,11.10
2023-03-15T04:56:30.625Z,11.57
2023-03-15T04:59:15.658Z,16.60
2023-03-15T05:01:54.225Z,10.07
2023-03-15T05:04:49.865Z,12.13
2023-03-15T05:07:34.018Z,11.07
2023-03-15T05:10:33.307Z,10.97
2023-03-15T05:13:23.312Z,9.63
2023-03-15T05:16:16.471Z,12.00
2023-03-15T05:19:15.017Z,11.00
2023-03-15T05:21:54.889Z,10.50
2023-03-15T05:24:43.747Z,12.30
2023-03-15T05:27:32.639Z,15.80
2023-03-15T05:30:11.602Z,12.93
2023-03-15T05:32:57.232Z,13.07
2023-03-15T05:35:44.302Z,10.33
2023-03-15T05:38:31.215Z,12.13
2023-03-15T05:41:03.540Z,14.03
2023-03-15T05:43:48.763Z,9.87
2023-03-15T05:46:40.942Z,10.07
2023-03-15T05:49:25.929Z,8.80
2023-03-15T05:52:03.659Z,9.50
2023-03-15T05:54:53.166Z,10.23
2023-03-15T05:57:30.777Z,11.50
2023-03-15T06:00:11.187Z,12.80
2023-03-15T06:02:44.645Z,11.40
2023-03-15T06:05:24.213Z,11.37
2023-03-15T06:07:51.207Z,10.80
2023-03-15T06:10:19.389Z,8.43
2023-03-15T06:12:45.894Z,11.80
2023-03-15T06:15:12.424Z,10.93
2023-03-15T06:17:39.245Z,10.10
2023-03-15T06:20:06.167Z,11.10
2023-03-15T06:22:33.898Z,10.37
2023-03-15T06:25:08.869Z,12.73
2023-03-15T06:27:35.879Z,10.67
2023-03-15T06:30:03.054Z,12.47
2023-03-15T06:32:30.000Z,7.87
2023-03-15T06:34:56.845Z,11.03
2023-03-15T06:37:34.577Z,11.17
2023-03-15T06:40:06.184Z,14.00
2023-03-15T06:42:32.797Z,13.00
2023-03-15T06:44:59.725Z,11.90
2023-03-15T06:47:26.863Z,10.30
2023-03-15T06:49:54.470Z,8.67
2023-03-15T06:52:22.155Z,10.47
2023-03-15T06:54:48.657Z,7.17
2023-03-15T06:57:15.496Z,10.07
2023-03-15T06:59:41.935Z,10.10
2023-03-15T07:02:16.589Z,6.63
2023-03-15T07:04:46.734Z,7.70
2023-03-15T07:07:14.146Z,8.73
2023-03-15T07:09:41.115Z,11.07
2023-03-15T07:12:08.155Z,8.10
2023-03-15T07:14:34.738Z,9.43
2023-03-15T07:17:01.361Z,7.83
2023-03-15T07:19:27.744Z,8.20
2023-03-15T07:21:54.188Z,9.70
2023-03-15T07:24:21.792Z,8.97
2023-03-15T07:26:48.286Z,6.83
2023-03-15T07:29:14.774Z,8.97
2023-03-15T07:31:41.242Z,12.97
2023-03-15T07:34:07.726Z,11.10
2023-03-15T07:36:34.207Z,7.03
2023-03-15T07:39:01.675Z,8.03
2023-03-15T07:41:28.065Z,9.57
2023-03-15T07:44:04.254Z,8.80
2023-03-15T07:46:30.881Z,8.27
2023-03-15T07:48:57.453Z,10.00
2023-03-15T07:51:23.850Z,8.13
2023-03-15T07:53:51.202Z,11.40
2023-03-15T07:56:18.629Z,9.60
2023-03-15T07:58:46.066Z,12.40
2023-03-15T08:01:12.498Z,10.23
2023-03-15T08:03:38.992Z,10.67
2023-03-15T08:06:05.766Z,7.30
2023-03-15T08:08:32.150Z,10.40
2023-03-15T08:10:59.583Z,9.43
2023-03-15T08:13:26.037Z,7.27
2023-03-15T08:15:52.531Z,8.97
2023-03-15T08:18:19.088Z,6.83
2023-03-15T08:20:45.498Z,10.67
2023-03-15T08:23:16.439Z,6.53
2023-03-15T08:25:44.375Z,6.93
2023-03-15T08:28:11.363Z,8.90
2023-03-15T08:30:37.843Z,10.67
2023-03-15T08:33:04.485Z,8.33
2023-03-15T08:35:32.844Z,10.17
2023-03-15T08:37:59.296Z,7.53
2023-03-15T08:40:26.180Z,11.17
2023-03-15T08:42:53.413Z,7.73
2023-03-15T08:45:20.750Z,6.60
2023-03-15T08:47:47.221Z,10.43
2023-03-15T08:50:15.097Z,8.43
2023-03-15T08:52:41.930Z,10.87
2023-03-15T08:55:09.464Z,11.10
2023-03-15T08:57:35.899Z,8.93
2023-03-15T09:00:22.576Z,10.33
2023-03-15T09:02:50.188Z,11.03
2023-03-15T09:05:16.970Z,10.63
2023-03-15T09:07:44.531Z,10.23
2023-03-15T09:10:14.991Z,11.23
2023-03-15T09:12:46.970Z,14.43
2023-03-15T09:15:14.034Z,11.20
2023-03-15T09:17:41.226Z,11.23
2023-03-15T09:20:18.833Z,12.90
2023-03-15T09:22:51.313Z,11.83
2023-03-15T09:25:18.125Z,12.70
2023-03-15T09:27:44.582Z,10.67
2023-03-15T09:30:11.632Z,11.40
2023-03-15T09:32:38.264Z,11.93
2023-03-15T09:35:06.885Z,13.67
2023-03-15T09:37:33.871Z,16.03
2023-03-15T09:40:01.899Z,12.37
2023-03-15T09:42:31.434Z,11.30
2023-03-15T09:45:27.093Z,13.23
2023-03-15T09:48:13.338Z,13.47
2023-03-15T09:50:50.792Z,10.37
2023-03-15T09:53:32.162Z,11.70
2023-03-15T09:55:58.758Z,12.73
2023-03-15T09:58:32.607Z,12.03
2023-03-15T10:01:08.077Z,14.00
2023-03-15T10:03:46.817Z,11.73
2023-03-15T10:06:19.330Z,15.70
2023-03-15T10:08:47.339Z,12.90
2023-03-15T10:11:27.451Z,14.80
2023-03-15T10:14:26.345Z,15.87
2023-03-15T10:16:53.048Z,11.83
2023-03-15T10:19:27.301Z,12.77
2023-03-15T10:22:03.856Z,13.10
2023-03-15T10:24:48.782Z,12.17
2023-03-15T10:27:21.484Z,11.37
2023-03-15T10:29:55.079Z,10.70
2023-03-15T10:32:27.101Z,12.90
2023-03-15T10:34:56.064Z,12.70
2023-03-15T10:37:24.256Z,11.60
2023-03-15T10:39:55.219Z,11.00
2023-03-15T10:42:33.674Z,12.20
2023-03-15T10:45:21.624Z,13.37
2023-03-15T10:47:57.681Z,12.80
2023-03-15T10:50:30.011Z,11.03
2023-03-15T10:52:58.121Z,9.70
2023-03-15T10:55:37.156Z,9.87
2023-03-15T10:58:27.357Z,10.83
2023-03-15T11:01:09.618Z,10.87
2023-03-15T11:03:37.693Z,12.43
2023-03-15T11:06:20.089Z,11.10
2023-03-15T11:08:46.567Z,12.37
2023-03-15T11:11:12.971Z,9.10
2023-03-15T11:13:41.660Z,10.97
2023-03-15T11:16:15.219Z,9.30
2023-03-15T11:18:49.136Z,11.57
2023-03-15T11:21:18.564Z,11.67
2023-03-15T11:23:48.857Z,11.87
2023-03-15T11:26:32.351Z,12.23
2023-03-15T11:29:05.291Z,11.07
2023-03-15T11:31:32.050Z,12.13
2023-03-15T11:34:03.035Z,13.77
2023-03-15T11:36:33.972Z,11.80
2023-03-15T11:39:03.306Z,10.10
2023-03-15T11:41:36.773Z,11.53
2023-03-15T11:44:17.857Z,7.87
2023-03-15T11:46:57.774Z,8.17
2023-03-15T11:49:35.179Z,8.50
2023-03-15T11:52:02.313Z,8.00
2023-03-15T11:54:30.430Z,7.23
2023-03-15T11:57:06.300Z,8.67
2023-03-15T11:59:36.629Z,6.90
2023-03-15T12:02:28.522Z,6.03
2023-03-15T12:04:57.218Z,5.80
2023-03-15T12:07:30.997Z,5.43
2023-03-15T12:10:17.309Z,8.20
2023-03-15T12:12:48.586Z,6.03
2023-03-15T12:15:15.035Z,5.37
2023-03-15T12:17:59.739Z,5.13
2023-03-15T12:20:32.164Z,4.37
2023-03-15T12:23:17.026Z,4.70
2023-03-15T12:26:10.787Z,5.20
2023-03-15T12:28:50.519Z,4.13
2023-03-15T12:31:17.752Z,3.87
2023-03-15T12:33:51.261Z,3.20
2023-03-15T12:36:41.311Z,4.33
2023-03-15T12:39:13.780Z,2.60
2023-03-15T12:41:43.642Z,3.73
2023-03-15T12:44:23.731Z,4.20
2023-03-15T12:46:50.081Z,4.03
2023-03-15T12:49:16.450Z,3.67
2023-03-15T12:52:13.507Z,3.40
2023-03-15T12:55:04.793Z,3.23
2023-03-15T12:57:38.802Z,3.70
2023-03-15T13:00:15.657Z,3.97
2023-03-15T13:02:49.943Z,3.73
2023-03-15T13:05:23.932Z,3.50
2023-03-15T13:07:56.324Z,3.93
2023-03-15T13:10:36.406Z,4.67
2023-03-15T13:13:23.165Z,3.30
2023-03-15T13:16:15.466Z,3.30
2023-03-15T13:18:55.391Z,2.70
2023-03-15T13:21:31.438Z,3.33
2023-03-15T13:23:59.847Z,3.37
2023-03-15T13:26:39.309Z,2.70
2023-03-15T13:29:19.394Z,3.00
2023-03-15T13:31:47.264Z,3.00
2023-03-15T13:34:19.264Z,2.63
2023-03-15T13:36:57.841Z,3.33
2023-03-15T13:39:47.230Z,3.60
2023-03-15T13:42:19.601Z,1.93
2023-03-15T13:44:46.054Z,2.70
2023-03-15T13:47:21.919Z,2.20
2023-03-15T13:49:52.730Z,1.80
2023-03-15T13:52:19.311Z,1.97
2023-03-15T13:54:45.828Z,2.90
2023-03-15T13:57:16.583Z,2.23
2023-03-15T13:59:57.443Z,2.73
2023-03-15T14:02:33.137Z,2.00
2023-03-15T14:05:05.300Z,2.33
2023-03-15T14:07:45.300Z,2.53
2023-03-15T14:10:37.997Z,1.90
2023-03-15T14:13:23.878Z,1.70
2023-03-15T14:15:55.215Z,2.00
2023-03-15T14:18:24.988Z,2.73
2023-03-15T14:21:00.249Z,2.20
2023-03-15T14:23:28.954Z,1.43
2023-03-15T14:26:21.579Z,1.20
2023-03-15T14:28:52.559Z,2.63
2023-03-15T14:31:26.477Z,1.20
2023-03-15T14:34:04.945Z,1.00
2023-03-15T14:36:36.986Z,1.97
2023-03-15T14:39:17.198Z,1.23
2023-03-15T14:41:43.667Z,1.60
2023-03-15T14:44:10.130Z,1.00
2023-03-15T14:46:36.611Z,1.20
2023-03-15T14:49:03.537Z,1.20
2023-03-15T14:51:30.837Z,0.80
2023-03-15T14:53:59.542Z,1.30
2023-03-15T14:56:26.564Z,1.47
2023-03-15T14:58:55.674Z,2.97
2023-03-15T15:01:27.173Z,1.07
2023-03-15T15:04:01.979Z,1.40
2023-03-15T15:06:31.786Z,1.27
2023-03-15T15:09:00.004Z,0.97
2023-03-15T15:11:27.044Z,1.77
2023-03-15T15:13:53.917Z,2.40
2023-03-15T15:16:20.721Z,1.87
2023-03-15T15:18:47.156Z,1.50
2023-03-15T15:21:21.646Z,1.83
2023-03-15T15:23:58.017Z,3.13
2023-03-15T15:26:28.288Z,1.87
2023-03-15T15:28:56.421Z,2.53
2023-03-15T15:31:24.733Z,2.90
2023-03-15T15:33:52.745Z,1.93
2023-03-15T15:36:25.775Z,2.10
2023-03-15T15:38:52.535Z,2.10
2023-03-15T15:41:24.684Z,2.00
2023-03-15T15:43:51.680Z,2.00
2023-03-15T15:46:18.511Z,3.53
2023-03-15T15:48:45.177Z,2.10
2023-03-15T15:51:23.123Z,1.93
2023-03-15T15:53:50.202Z,3.30
2023-03-15T15:56:16.799Z,2.47
2023-03-15T15:58:44.733Z,2.43
2023-03-15T16:01:15.355Z,2.07
2023-03-15T16:03:42.182Z,1.57
2023-03-15T16:06:20.798Z,1.63
2023-03-15T16:08:50.735Z,2.03
2023-03-15T16:11:17.564Z,1.50
2023-03-15T16:13:45.810Z,1.87
2023-03-15T16:16:15.289Z,2.70
2023-03-15T16:18:43.172Z,1.83
2023-03-15T16:21:26.402Z,1.87
2023-03-15T16:24:00.557Z,2.63
2023-03-15T16:26:27.814Z,1.80
2023-03-15T16:28:54.413Z,2.20
2023-03-15T16:31:22.115Z,1.77
2023-03-15T16:33:49.771Z,1.70
2023-03-15T16:36:21.794Z,1.57
2023-03-15T16:38:48.448Z,1.33
2023-03-15T16:41:16.681Z,1.43
2023-03-15T16:43:43.503Z,2.57
2023-03-15T16:46:17.094Z,2.60
2023-03-15T16:48:43.878Z,1.40
2023-03-15T16:51:13.057Z,1.40
2023-03-15T16:53:44.445Z,1.40
2023-03-15T16:56:13.357Z,1.33
2023-03-15T16:58:42.377Z,1.20
2023-03-15T17:01:10.705Z,1.40
2023-03-15T17:03:37.160Z,1.40
2023-03-15T17:06:03.645Z,2.20
2023-03-15T17:08:30.122Z,2.47
2023-03-15T17:10:56.607Z,2.27
2023-03-15T17:13:28.526Z,3.20
2023-03-15T17:15:55.081Z,2.77
2023-03-15T17:18:22.777Z,3.00
2023-03-15T17:20:50.325Z,5.60
2023-03-15T17:23:17.383Z,13.97
2023-03-15T17:25:43.864Z,12.70
2023-03-15T17:28:10.331Z,16.73
2023-03-15T17:30:37.811Z,18.77
2023-03-15T17:33:05.350Z,13.73
2023-03-15T17:35:38.415Z,27.20
2023-03-15T17:38:11.352Z,6.63
2023-03-15T17:40:37.940Z,5.93
2023-03-15T17:43:04.748Z,6.63
2023-03-15T17:45:33.545Z,8.93
2023-03-15T17:48:01.339Z,13.40
2023-03-15T17:50:31.296Z,54.13
2023-03-15T17:53:01.592Z,102.30
2023-03-15T17:55:30.622Z,85.33
2023-03-15T17:57:57.014Z,28.00
2023-03-15T18:00:24.786Z,16.70
2023-03-15T18:02:56.337Z,4.13
2023-03-15T18:05:27.999Z,2.77
2023-03-15T18:07:59.594Z,2.20
2023-03-15T18:10:33.516Z,1.73
2023-03-15T18:13:00.032Z,1.43
2023-03-15T18:15:26.559Z,1.30
2023-03-15T18:17:53.006Z,1.27
2023-03-15T18:20:22.128Z,1.03
2023-03-15T18:22:49.232Z,2.20
2023-03-15T18:25:21.859Z,2.03
2023-03-15T18:27:49.832Z,1.93
2023-03-15T18:30:18.957Z,2.83
2023-03-15T18:32:46.755Z,5.10
2023-03-15T18:35:20.095Z,2.37
2023-03-15T18:37:47.827Z,2.40
2023-03-15T18:40:17.761Z,2.50
2023-03-15T18:42:44.896Z,2.07
2023-03-15T18:45:18.160Z,1.90
2023-03-15T18:47:45.158Z,1.40
2023-03-15T18:50:12.596Z,1.07
2023-03-15T18:52:39.753Z,2.37
2023-03-15T18:55:07.830Z,2.30
2023-03-15T18:57:35.502Z,1.60
2023-03-15T19:00:02.088Z,3.80
2023-03-15T19:02:29.104Z,5.33
2023-03-15T19:04:58.306Z,2.80
2023-03-15T19:07:25.634Z,1.63
2023-03-15T19:09:52.404Z,3.60
2023-03-15T19:12:18.819Z,1.83
2023-03-15T19:14:45.259Z,3.30
2023-03-15T19:17:11.830Z,1.67
2023-03-15T19:19:38.301Z,5.30
2023-03-15T19:22:04.713Z,5.70
2023-03-15T19:24:33.078Z,4.97
2023-03-15T19:26:59.556Z,1.90
2023-03-15T19:29:25.993Z,2.80
2023-03-15T19:31:52.470Z,3.47
2023-03-15T19:34:18.808Z,2.80
2023-03-15T19:36:45.233Z,2.47
2023-03-15T19:39:12.274Z,1.70
2023-03-15T19:41:38.791Z,3.13
2023-03-15T19:44:05.207Z,1.63
2023-03-15T19:46:31.695Z,2.17
2023-03-15T19:48:58.152Z,6.23
2023-03-15T19:51:25.049Z,19.67
2023-03-15T19:53:51.737Z,22.03
2023-03-15T19:56:18.143Z,12.40
2023-03-15T19:58:44.585Z,8.17
2023-03-15T20:01:11.416Z,6.00
2023-03-15T20:03:37.899Z,7.37
2023-03-15T20:06:09.771Z,7.37
2023-03-15T20:08:36.311Z,7.87
2023-03-15T20:11:03.956Z,8.83
2023-03-15T20:13:31.070Z,8.33
2023-03-15T20:15:57.682Z,4.60
2023-03-15T20:18:24.466Z,6.63
2023-03-15T20:20:51.575Z,5.93
2023-03-15T20:23:18.963Z,5.93
2023-03-15T20:25:45.470Z,3.47
2023-03-15T20:28:11.845Z,3.20
2023-03-15T20:30:39.559Z,5.83
2023-03-15T20:33:06.286Z,8.63
2023-03-15T20:35:33.050Z,7.83
2023-03-15T20:38:06.515Z,5.60
2023-03-15T20:40:34.656Z,5.30
2023-03-15T20:43:01.774Z,4.00
2023-03-15T20:45:28.594Z,4.40
2023-03-15T20:47:55.007Z,3.97
2023-03-15T20:50:21.772Z,8.20
2023-03-15T20:52:48.990Z,7.90
2023-03-15T20:55:15.942Z,3.77
2023-03-15T20:57:42.942Z,4.07
2023-03-15T21:00:20.713Z,3.87
2023-03-15T21:02:47.693Z,3.90
2023-03-15T21:05:14.731Z,4.03
2023-03-15T21:07:41.474Z,3.30
2023-03-15T21:10:09.029Z,3.57
2023-03-15T21:12:35.474Z,3.17
2023-03-15T21:15:02.239Z,3.87
2023-03-15T21:17:28.708Z,5.80
2023-03-15T21:19:55.269Z,7.47
2023-03-15T21:22:21.751Z,4.80
2023-03-15T21:24:55.625Z,5.60
2023-03-15T21:27:26.164Z,3.97
2023-03-15T21:29:53.269Z,4.20
2023-03-15T21:32:19.769Z,3.97
2023-03-15T21:34:46.251Z,3.30
2023-03-15T21:37:12.671Z,4.23
2023-03-15T21:39:39.076Z,4.87
2023-03-15T21:42:05.748Z,6.93
2023-03-15T21:44:36.180Z,4.57
2023-03-15T21:47:04.448Z,3.77
2023-03-15T21:49:32.720Z,4.50
2023-03-15T21:51:59.939Z,3.47
2023-03-15T21:54:26.621Z,4.43
2023-03-15T21:56:53.071Z,6.13
2023-03-15T21:59:19.931Z,7.03
2023-03-15T22:01:48.224Z,7.10
2023-03-15T22:04:14.832Z,9.70
2023-03-15T22:06:41.314Z,10.93
2023-03-15T22:09:07.709Z,7.80
2023-03-15T22:11:34.138Z,7.43
2023-03-15T22:14:00.954Z,5.23
2023-03-15T22:16:27.431Z,3.63
2023-03-15T22:18:53.937Z,4.40
2023-03-15T22:21:21.414Z,3.97
2023-03-15T22:23:47.811Z,3.07
2023-03-15T22:26:14.263Z,2.67
2023-03-15T22:28:40.897Z,3.50
2023-03-15T22:31:10.474Z,4.30
2023-03-15T22:33:36.977Z,4.23
2023-03-15T22:36:03.686Z,5.03
2023-03-15T22:38:30.112Z,3.00
2023-03-15T22:41:07.741Z,4.03
2023-03-15T22:43:35.347Z,4.70
2023-03-15T22:46:02.062Z,3.77
2023-03-15T22:48:28.566Z,4.30
2023-03-15T22:50:59.979Z,4.33
2023-03-15T22:53:26.708Z,4.03
2023-03-15T22:55:53.277Z,4.87
2023-03-15T22:58:20.245Z,4.67
2023-03-15T23:00:46.744Z,3.73
2023-03-15T23:03:13.470Z,4.70
2023-03-15T23:05:40.094Z,5.20
2023-03-15T23:08:06.826Z,3.87
2023-03-15T23:10:33.742Z,5.27
2023-03-15T23:13:00.126Z,4.27
2023-03-15T23:15:26.810Z,3.50
2023-03-15T23:17:56.362Z,3.80
2023-03-15T23:20:24.028Z,4.83
2023-03-15T23:22:50.877Z,3.80
2023-03-15T23:25:20.021Z,4.27
2023-03-15T23:27:47.036Z,4.17
2023-03-15T23:30:14.955Z,5.10
2023-03-15T23:32:41.825Z,5.33
2023-03-15T23:35:12.074Z,6.17
2023-03-15T23:37:39.712Z,5.23
2023-03-15T23:40:11.400Z,4.53
2023-03-15T23:42:37.969Z,5.50
2023-03-15T23:45:08.221Z,4.87
2023-03-15T23:47:35.305Z,6.93
2023-03-15T23:50:04.691Z,5.00
2023-03-15T23:52:31.179Z,6.03
2023-03-15T23:54:58.306Z,4.63
2023-03-15T23:57:25.079Z,4.47
2023-03-15T23:59:51.986Z,4.50
